Aérodrome :
LOGIN :

S'inscrire | Disclaimer

   EN    FR    IT 

 










Légende :    VFR   VFR Marginal   IFR   IFR Intensif   IFR Très Intensif
Visi : 
Plafond : 
>= 8 km
>= 3000ft
5 à 8 km
1000 à 3000 ft
1500m à 5 km
500 à 1000 ft
800 à 1500m
200 à 500 ft
< 800m
< 200 ft
Symboles :   Orages  Brouillard  Fortes neiges  Fortes précipitations  Vent > 20 kt
SIGMETs :   Divers  Orages  Givrage  Turbulence  Onde Orograph.  Cendres Volcan.






- Altitude de l'aérodrome : 794 ft


LKCV - Čáslav Air Base

DERNIER METAR :
  • 270730Z 00000KT CAVOK 16/13 Q1017 NOSIG RMK BLU BLU

METARs EXPIRÉS :
  • 270700Z VRB01KT CAVOK 15/13 Q1017 NOSIG RMK BLU BLU
  • 270630Z 00000KT 8000 NSC 15/13 Q1017 NOSIG RMK BLU BLU
  • 270600Z 13002KT 8000 NSC 13/12 Q1017 NOSIG RMK BLU BLU
  • 270530Z 09003KT 8000 SCT049 BKN060 12/11 Q1017 NOSIG RMK BLU BLU
  • 270500Z 11003KT 8000 SCT048 BKN060 12/11 Q1017 NOSIG RMK BLU BLU

TAF TAF LKCV
Valide du 27 à 06h jusqu'au 28 à 06h UTC


270500Z 2706/2806 VRB02KT 9999 BKN040
TEMPO 2714/2720 30007KT 7000 SHRA BKN025TCU
BECMG 2719/2721 28005KT
PROB30 2802/2806 VRB02KT 5000 BR SCT015



MET'MAP, la Météo Aéronautique d'un coup d'oeil ! - Copyright ORBIFLY Décembre 2007 - Disclaimer

ORBIFLY MET'MAP TEAM :

Programmation & Développement : Alexandra Zaïnal
Sur une idée originale de : Baudouin d'Aumeries
Assistance à la programmation : Marc-Olivier Méhu
Soutien technique & logistique : Manuel Goepfert

Contact : metmap@orbifly.com




SOURCES & CREDITS :

   NOAA